Time;durP1;ratioP1;P1;durP2;ratioP2;P2;SDS_P1;SDS_P2;PMS_P1;PMS_P2;Temp;Humidity;BMP_temperature;BMP_pressure;BME280_temperature;BME280_humidity;BME280_pressure;Samples;Min_cycle;Max_cycle;Signal;HPM_P1;HPM_P2
2021/03/26 00:00:13;;;;;;;18.20;12.50;;;;;;;6.61;59.29;99367.69;5093892;28;40071;-74
2021/03/26 00:02:40;;;;;;;18.60;12.77;;;;;;;6.57;59.15;99360.81;5111499;28;40593;-74
2021/03/26 00:05:11;;;;;;;16.90;12.30;;;;;;;6.54;58.99;99368.00;5093264;28;42730;-74
2021/03/26 00:07:38;;;;;;;22.40;13.77;;;;;;;6.48;58.80;99372.56;5112568;28;41952;-74
2021/03/26 00:10:09;;;;;;;20.30;12.07;;;;;;;6.44;58.91;99375.34;5111437;28;39563;-74
2021/03/26 00:12:37;;;;;;;26.17;16.60;;;;;;;6.40;59.70;99368.50;5092834;28;41709;-74
2021/03/26 00:15:06;;;;;;;21.70;13.70;;;;;;;6.34;59.71;99368.72;5073352;28;43491;-74
2021/03/26 00:17:33;;;;;;;19.87;14.53;;;;;;;6.22;60.63;99353.41;5091312;28;42050;-75
2021/03/26 00:20:00;;;;;;;16.57;12.90;;;;;;;6.11;60.78;99336.25;5091123;28;39947;-75
2021/03/26 00:22:27;;;;;;;21.20;14.33;;;;;;;6.24;60.55;99360.31;5103675;28;42430;-75
2021/03/26 00:24:54;;;;;;;21.30;13.53;;;;;;;6.22;60.71;99362.16;5111573;28;42747;-75
2021/03/26 00:27:22;;;;;;;18.07;12.87;;;;;;;6.12;60.80;99353.75;5093886;28;42284;-75
2021/03/26 00:29:49;;;;;;;20.07;11.73;;;;;;;6.20;60.71;99365.75;5093299;28;40897;-75
2021/03/26 00:32:17;;;;;;;22.17;13.63;;;;;;;6.17;60.80;99366.75;5112029;28;41391;-75
2021/03/26 00:34:44;;;;;;;16.27;11.60;;;;;;;6.15;60.52;99367.69;5094107;28;42125;-74
2021/03/26 00:37:12;;;;;;;17.97;12.83;;;;;;;6.10;60.59;99371.34;5093498;28;42298;-74
2021/03/26 00:39:39;;;;;;;18.70;11.37;;;;;;;6.08;60.58;99367.91;5093525;28;39956;-74
2021/03/26 00:42:07;;;;;;;17.07;12.90;;;;;;;5.98;61.21;99353.38;5111015;28;42389;-74
2021/03/26 00:44:34;;;;;;;21.03;13.47;;;;;;;6.02;60.92;99362.88;5111237;28;42756;-74
2021/03/26 00:47:03;;;;;;;16.90;12.23;;;;;;;6.01;63.03;99350.66;5076464;28;42046;-76
2021/03/26 00:49:30;;;;;;;21.37;14.07;;;;;;;6.00;62.63;99348.94;5077006;28;39089;-74
2021/03/26 00:51:58;;;;;;;24.40;15.57;;;;;;;5.97;62.39;99349.03;5110596;28;41768;-73
2021/03/26 00:54:25;;;;;;;20.10;13.10;;;;;;;5.90;62.93;99331.78;5093124;28;43229;-73
2021/03/26 00:56:52;;;;;;;19.60;13.17;;;;;;;5.93;64.53;99326.41;5075705;28;41148;-75
2021/03/26 00:59:20;;;;;;;19.03;12.43;;;;;;;6.01;64.02;99334.88;5093956;28;39677;-74
2021/03/26 01:01:47;;;;;;;18.97;12.00;;;;;;;6.01;63.68;99334.88;5076828;28;40717;-75
2021/03/26 01:04:15;;;;;;;16.97;12.10;;;;;;;5.98;63.28;99334.13;5093784;28;43002;-74
2021/03/26 01:06:42;;;;;;;19.03;12.00;;;;;;;5.94;62.90;99337.75;5092517;28;43369;-73
2021/03/26 01:09:10;;;;;;;16.97;11.60;;;;;;;5.90;62.87;99344.94;5076895;28;39026;-74
2021/03/26 01:11:40;;;;;;;17.57;12.07;;;;;;;5.82;62.29;99351.31;5110369;28;42254;-74
2021/03/26 01:14:11;;;;;;;16.07;10.67;;;;;;;5.74;62.04;99359.47;5092720;28;43223;-73
2021/03/26 01:16:39;;;;;;;15.17;11.23;;;;;;;5.54;61.80;99343.56;5110418;28;42568;-74
2021/03/26 01:19:07;;;;;;;17.07;11.63;;;;;;;5.60;61.74;99364.34;5110601;28;41424;-74
2021/03/26 01:21:39;;;;;;;17.43;12.57;;;;;;;5.54;61.79;99361.94;5110427;28;41824;-74
2021/03/26 01:24:11;;;;;;;17.63;11.67;;;;;;;5.48;61.90;99362.13;5093338;28;42911;-75
2021/03/26 01:26:39;;;;;;;19.47;12.53;;;;;;;5.41;62.61;99362.34;5092701;28;42073;-75
2021/03/26 01:29:32;;;;;;;21.47;14.53;;;;;;;5.37;62.21;99368.63;5090290;28;39899;-74
2021/03/26 01:32:10;;;;;;;18.37;12.70;;;;;;;5.32;62.16;99360.00;5076651;28;40031;-75
2021/03/26 01:34:40;;;;;;;18.73;12.73;;;;;;;5.29;62.36;99354.03;5091749;28;43387;-75
2021/03/26 01:37:09;;;;;;;20.23;14.13;;;;;;;5.23;63.66;99339.31;5109827;28;42317;-75
2021/03/26 01:39:54;;;;;;;21.87;14.13;;;;;;;5.24;63.49;99351.53;5087277;28;40419;-75
2021/03/26 01:42:23;;;;;;;18.57;12.73;;;;;;;5.22;63.84;99348.09;5122921;28;42307;-74
2021/03/26 01:44:51;;;;;;;19.20;13.77;;;;;;;5.22;63.62;99347.25;5123118;28;43011;-75
2021/03/26 01:47:26;;;;;;;17.23;13.00;;;;;;;5.18;63.52;99350.91;5123902;28;42891;-75
2021/03/26 01:49:53;;;;;;;17.50;10.97;;;;;;;5.15;63.24;99351.84;5123158;28;40859;-76
2021/03/26 01:52:22;;;;;;;16.00;11.77;;;;;;;5.14;63.05;99351.91;5100682;28;42101;-74
2021/03/26 01:54:49;;;;;;;16.53;12.63;;;;;;;5.12;64.28;99341.44;5093094;28;42414;-74
2021/03/26 01:57:17;;;;;;;18.47;12.57;;;;;;;5.07;64.87;99330.22;5110035;28;42921;-74
2021/03/26 02:00:07;;;;;;;17.97;11.60;;;;;;;5.11;64.29;99342.34;5091721;28;39395;-74
2021/03/26 02:02:42;;;;;;;18.07;13.67;;;;;;;5.06;65.85;99320.66;5110164;28;41297;-74
2021/03/26 02:05:33;;;;;;;16.03;12.50;;;;;;;5.14;65.05;99338.78;5091724;28;42742;-74
2021/03/26 02:08:27;;;;;;;15.60;11.33;;;;;;;5.11;64.45;99339.72;5091421;28;42304;-74
2021/03/26 02:11:03;;;;;;;15.33;11.27;;;;;;;5.08;64.58;99339.81;5110244;28;41737;-74
2021/03/26 02:13:37;;;;;;;14.97;9.80;;;;;;;5.07;64.24;99350.41;5075436;28;40442;-74
2021/03/26 02:16:13;;;;;;;16.63;12.20;;;;;;;5.03;63.93;99352.25;5091892;28;42513;-75
2021/03/26 02:18:57;;;;;;;19.57;13.43;;;;;;;4.98;63.87;99362.88;5091747;28;42722;-74
2021/03/26 02:21:29;;;;;;;17.57;11.23;;;;;;;4.93;63.96;99358.72;5091698;28;40790;-74
2021/03/26 02:24:01;;;;;;;15.37;11.10;;;;;;;4.86;63.82;99365.03;5092205;28;41504;-74
2021/03/26 02:26:32;;;;;;;22.20;14.60;;;;;;;4.79;63.94;99358.28;5109821;28;42840;-75
2021/03/26 02:29:22;;;;;;;22.07;15.43;;;;;;;4.75;64.27;99356.66;5075783;28;41272;-74
2021/03/26 02:32:07;;;;;;;19.73;13.77;;;;;;;4.65;64.27;99351.69;5091458;28;40001;-75
2021/03/26 02:34:37;;;;;;;18.63;12.97;;;;;;;4.69;64.29;99358.56;5075627;28;40810;-75
2021/03/26 02:37:06;;;;;;;18.37;12.33;;;;;;;4.70;66.58;99341.03;5109416;28;43034;-75
2021/03/26 02:39:39;;;;;;;17.97;13.20;;;;;;;4.77;67.69;99333.84;5084116;27;42078;-74
2021/03/26 02:42:18;;;;;;;20.40;13.40;;;;;;;4.81;66.90;99351.22;5086676;28;38968;-75
2021/03/26 02:45:18;;;;;;;19.93;13.10;;;;;;;4.80;66.41;99352.13;5085628;28;41526;-74
2021/03/26 02:47:55;;;;;;;19.03;13.73;;;;;;;4.75;66.04;99356.66;5078107;28;42042;-75
2021/03/26 02:50:47;;;;;;;22.83;15.27;;;;;;;4.69;66.16;99357.72;5092084;28;41319;-74
2021/03/26 02:53:23;;;;;;;22.10;14.57;;;;;;;4.64;66.23;99360.47;5075751;28;39855;-74
2021/03/26 02:56:03;;;;;;;22.23;15.87;;;;;;;4.60;65.67;99363.22;5091574;28;42138;-74
2021/03/26 02:58:40;;;;;;;16.93;12.57;;;;;;;4.58;66.70;99357.16;5091937;28;43136;-74
2021/03/26 03:01:15;;;;;;;20.03;12.07;;;;;;;4.56;66.70;99366.84;5091007;28;42960;-74
2021/03/26 03:03:45;;;;;;;18.57;12.83;;;;;;;4.54;67.27;99364.28;5109110;28;41036;-74
2021/03/26 03:06:19;;;;;;;17.50;13.03;;;;;;;4.49;66.99;99360.91;5109376;28;41406;-74
2021/03/26 03:09:15;;;;;;;17.33;12.43;;;;;;;4.53;66.63;99373.03;5074915;28;41730;-74
2021/03/26 03:11:46;;;;;;;15.67;10.80;;;;;;;4.53;66.56;99374.81;5070439;28;42515;-74
2021/03/26 03:14:22;;;;;;;15.10;11.47;;;;;;;4.51;66.40;99380.09;5090559;28;20206;-74
2021/03/26 03:16:55;;;;;;;18.87;13.40;;;;;;;4.48;65.97;99381.94;5091529;28;42086;-74
2021/03/26 03:19:35;;;;;;;15.27;11.33;;;;;;;4.43;66.02;99370.75;5075726;27;41631;-74
2021/03/26 03:22:07;;;;;;;21.03;14.20;;;;;;;4.36;65.71;99375.28;5112217;28;42288;-74
2021/03/26 03:24:39;;;;;;;16.73;11.67;;;;;;;4.33;66.32;99376.22;5112321;28;39916;-74
2021/03/26 03:27:22;;;;;;;15.77;11.67;;;;;;;4.30;66.06;99381.59;5078234;28;41124;-74
2021/03/26 03:29:55;;;;;;;16.50;12.50;;;;;;;4.28;65.83;99383.38;5095000;28;42720;-74
2021/03/26 03:32:58;;;;;;;17.10;12.73;;;;;;;4.20;65.90;99366.19;5078412;28;41316;-74
2021/03/26 03:35:38;;;;;;;15.03;11.10;;;;;;;4.32;66.44;99378.94;5077936;28;39045;-74
2021/03/26 03:38:26;;;;;;;19.90;12.80;;;;;;;4.38;67.19;99373.50;5094416;28;41817;-74
2021/03/26 03:41:00;;;;;;;19.23;13.63;;;;;;;4.43;66.75;99371.59;5112004;28;43565;-74
2021/03/26 03:43:34;;;;;;;15.40;10.83;;;;;;;4.57;68.49;99365.94;5094343;28;41941;-74
2021/03/26 03:46:08;;;;;;;16.63;12.00;;;;;;;4.65;67.55;99364.81;5095166;28;40476;-75
2021/03/26 03:49:18;;;;;;;16.13;11.37;;;;;;;4.73;66.93;99375.06;5053135;28;41045;-74
2021/03/26 03:51:51;;;;;;;17.60;12.33;;;;;;;4.74;66.40;99368.03;5071111;28;42775;-74
2021/03/26 03:54:25;;;;;;;13.40;10.47;;;;;;;4.69;66.20;99369.06;5073595;28;42240;-74
2021/03/26 03:56:58;;;;;;;16.07;11.23;;;;;;;4.59;66.26;99357.09;5069352;28;40633;-74
2021/03/26 03:59:33;;;;;;;17.10;12.10;;;;;;;4.62;66.46;99369.28;5093157;28;41608;-74
2021/03/26 04:02:16;;;;;;;14.70;10.97;;;;;;;4.57;66.03;99372.06;5093583;28;42784;-74
2021/03/26 04:04:48;;;;;;;18.97;11.87;;;;;;;4.40;66.34;99345.47;5094209;28;42350;-74
2021/03/26 04:07:21;;;;;;;15.60;11.47;;;;;;;4.51;66.20;99374.84;5093940;28;40840;-74
2021/03/26 04:09:54;;;;;;;14.07;10.23;;;;;;;4.42;67.03;99348.03;5094005;28;42181;-74
2021/03/26 04:12:24;;;;;;;19.47;12.97;;;;;;;4.47;67.52;99367.97;5094589;28;41780;-75
2021/03/26 04:15:00;;;;;;;18.87;12.70;;;;;;;4.43;67.07;99368.97;5111271;28;44425;-75
2021/03/26 04:17:40;;;;;;;16.13;12.30;;;;;;;4.11;66.85;99324.47;5094326;28;40036;-74
2021/03/26 04:20:29;;;;;;;15.90;11.53;;;;;;;4.33;66.64;99373.59;5093574;28;41742;-75
2021/03/26 04:23:02;;;;;;;14.80;10.90;;;;;;;4.32;67.01;99373.69;5093752;28;42642;-73
2021/03/26 04:25:39;;;;;;;14.73;10.97;;;;;;;4.29;67.05;99384.25;5093576;28;41439;-73
2021/03/26 04:28:31;;;;;;;15.77;12.03;;;;;;;4.23;67.01;99371.31;5111606;28;39782;-73
2021/03/26 04:31:25;;;;;;;20.03;12.77;;;;;;;4.20;67.82;99371.41;5111542;27;42448;-73
2021/03/26 04:34:03;;;;;;;18.67;13.03;;;;;;;4.17;67.32;99379.34;5092651;28;43575;-73
2021/03/26 04:36:39;;;;;;;14.93;11.07;;;;;;;3.77;67.53;99312.34;5093779;28;42220;-73
2021/03/26 04:39:34;;;;;;;17.43;12.13;;;;;;;4.10;67.31;99372.56;5094100;28;39960;-75
2021/03/26 04:42:09;;;;;;;27.97;15.73;;;;;;;4.07;67.39;99375.28;5094205;28;41607;-73
2021/03/26 04:44:47;;;;;;;20.13;13.27;;;;;;;4.04;68.26;99357.00;5093786;28;43109;-73
2021/03/26 04:47:22;;;;;;;25.27;17.43;;;;;;;3.87;68.10;99339.13;5077229;28;42534;-73
2021/03/26 04:50:18;;;;;;;25.57;16.57;;;;;;;3.96;67.82;99371.19;5077016;28;40120;-73
2021/03/26 04:52:49;;;;;;;22.77;13.90;;;;;;;3.94;67.84;99373.00;5111115;28;42332;-75
2021/03/26 04:55:22;;;;;;;19.60;13.57;;;;;;;3.91;68.00;99373.09;5092904;28;42657;-75
2021/03/26 04:58:00;;;;;;;20.20;14.97;;;;;;;3.88;67.96;99367.91;5111755;28;42934;-74
2021/03/26 05:00:42;;;;;;;21.23;13.17;;;;;;;3.86;67.88;99369.72;5093338;28;40780;-74
2021/03/26 05:03:16;;;;;;;15.57;11.23;;;;;;;3.86;68.96;99359.22;5093234;28;42365;-75
2021/03/26 05:05:51;;;;;;;21.30;13.73;;;;;;;3.83;69.53;99367.16;5092705;28;42598;-74
2021/03/26 05:08:23;;;;;;;17.57;12.57;;;;;;;3.83;68.66;99366.34;5092402;28;42124;-75
2021/03/26 05:11:12;;;;;;;16.70;12.00;;;;;;;3.89;68.34;99368.78;5068469;28;40837;-74
2021/03/26 05:13:44;;;;;;;16.20;11.93;;;;;;;3.92;68.03;99377.41;5111151;28;41683;-74
2021/03/26 05:16:24;;;;;;;15.50;11.63;;;;;;;3.92;67.83;99374.81;5093072;28;42848;-74
2021/03/26 05:19:16;;;;;;;12.83;9.93;;;;;;;3.86;67.89;99374.94;5090068;28;42193;-74
2021/03/26 05:21:47;;;;;;;13.33;10.10;;;;;;;3.84;67.79;99371.50;5089799;28;39872;-74
2021/03/26 05:24:44;;;;;;;14.27;10.20;;;;;;;3.93;67.67;99376.53;5071119;28;41607;-74
2021/03/26 05:27:38;;;;;;;16.20;11.97;;;;;;;3.82;67.93;99362.84;5107071;28;43254;-74
2021/03/26 05:30:08;;;;;;;13.13;9.33;;;;;;;3.89;67.66;99364.41;5092311;28;42113;-74
2021/03/26 05:32:44;;;;;;;13.67;10.87;;;;;;;3.95;67.91;99374.72;5093572;28;38951;-74
2021/03/26 05:35:37;;;;;;;18.03;11.73;;;;;;;4.02;67.85;99379.78;5076486;28;40632;-74
2021/03/26 05:38:28;;;;;;;13.67;10.33;;;;;;;4.04;68.01;99375.34;5111662;28;43180;-74
2021/03/26 05:42:00;;;;;;;18.60;11.07;;;;;;;4.09;68.00;99376.06;5069852;28;42183;-75
2021/03/26 05:45:12;;;;;;;14.40;10.13;;;;;;;4.15;67.96;99375.91;5049755;27;39898;-75
2021/03/26 05:48:29;;;;;;;13.93;10.20;;;;;;;4.19;67.83;99372.31;5130384;27;41479;-73
2021/03/26 05:51:23;;;;;;;15.27;12.13;;;;;;;4.23;68.00;99373.91;5105129;28;42444;-74
2021/03/26 05:54:02;;;;;;;14.30;10.47;;;;;;;4.28;67.99;99372.03;5092359;28;42029;-73
2021/03/26 05:56:56;;;;;;;14.07;11.83;;;;;;;4.36;67.91;99379.69;5111434;28;40047;-73
2021/03/26 05:59:33;;;;;;;14.33;11.23;;;;;;;4.40;67.91;99376.94;5076334;28;41642;-74
2021/03/26 06:02:21;;;;;;;16.10;11.23;;;;;;;4.50;67.69;99378.38;5092976;28;42700;-73
2021/03/26 06:05:44;;;;;;;15.07;10.93;;;;;;;4.59;67.62;99388.59;5089204;28;42980;-73
2021/03/26 06:08:57;;;;;;;14.33;10.50;;;;;;;4.70;67.58;99389.13;5074125;28;40505;-75
2021/03/26 06:12:32;;;;;;;15.63;12.30;;;;;;;4.84;68.24;99399.19;5006206;28;42189;-74
2021/03/26 06:16:10;;;;;;;15.10;11.67;;;;;;;4.99;67.57;99397.88;4982853;28;42495;-74
2021/03/26 06:19:33;;;;;;;14.23;10.57;;;;;;;5.24;67.05;99393.56;5069745;28;42500;-74
2021/03/26 06:23:31;;;;;;;17.00;11.10;;;;;;;5.67;66.08;99402.66;5109030;28;40098;-74
2021/03/26 06:26:56;;;;;;;19.13;14.47;;;;;;;6.21;65.86;99399.03;5092774;28;42225;-74
2021/03/26 06:29:36;;;;;;;19.27;13.10;;;;;;;6.64;65.13;99404.44;5089057;28;43333;-73
2021/03/26 06:32:43;;;;;;;16.30;12.53;;;;;;;6.97;64.55;99396.13;5090614;28;42939;-74
2021/03/26 06:35:54;;;;;;;12.47;10.87;;;;;;;7.46;64.19;99405.56;5023764;28;39804;-74
2021/03/26 06:38:45;;;;;;;14.83;12.00;;;;;;;7.68;64.07;99397.63;5075715;28;40870;-74
2021/03/26 06:41:24;;;;;;;14.90;12.00;;;;;;;7.88;63.73;99397.66;5091609;28;42712;-74
2021/03/26 06:44:32;;;;;;;15.33;11.53;;;;;;;8.13;63.37;99403.56;5100963;28;42627;-73
2021/03/26 06:47:07;;;;;;;16.97;12.30;;;;;;;8.46;62.91;99395.97;5108192;28;41585;-72
2021/03/26 06:49:48;;;;;;;16.70;12.43;;;;;;;8.87;62.33;99401.97;5107949;28;42122;-73
2021/03/26 06:52:28;;;;;;;15.40;11.53;;;;;;;9.29;61.44;99400.84;5073341;28;41620;-74
2021/03/26 06:55:19;;;;;;;16.20;12.20;;;;;;;9.65;60.55;99404.31;5105952;27;41965;-74
2021/03/26 06:58:16;;;;;;;15.17;11.93;;;;;;;9.94;60.12;99402.84;5094432;28;39949;-75
2021/03/26 07:01:06;;;;;;;15.87;11.27;;;;;;;10.11;59.42;99390.56;5112479;28;42274;-75
2021/03/26 07:03:59;;;;;;;21.43;11.30;;;;;;;10.37;58.85;99411.25;5094428;28;42669;-74
2021/03/26 07:06:49;;;;;;;16.23;11.13;;;;;;;10.50;58.07;99396.44;5094280;28;41976;-77
2021/03/26 07:09:29;;;;;;;12.17;9.93;;;;;;;10.69;57.82;99413.03;5113164;28;39474;-76
2021/03/26 07:12:09;;;;;;;14.23;10.30;;;;;;;10.77;57.80;99409.94;5077493;28;40815;-74
2021/03/26 07:14:49;;;;;;;14.33;9.73;;;;;;;10.85;57.59;99413.06;5112614;28;42716;-74
2021/03/26 07:17:41;;;;;;;13.80;9.93;;;;;;;10.75;57.50;99395.97;5078332;28;41634;-74
2021/03/26 07:20:35;;;;;;;14.37;10.60;;;;;;;10.81;57.27;99411.50;5111814;28;39778;-74
2021/03/26 07:23:30;;;;;;;16.33;12.20;;;;;;;10.86;57.31;99390.94;5110505;28;41487;-74
2021/03/26 07:26:22;;;;;;;13.83;10.33;;;;;;;11.32;57.42;99396.28;5090422;28;43498;-74
2021/03/26 07:29:02;;;;;;;14.10;10.40;;;;;;;11.73;56.37;99409.84;5090632;28;42435;-72
2021/03/26 07:31:39;;;;;;;14.17;10.73;;;;;;;12.40;55.71;99406.69;5092705;28;39792;-74
2021/03/26 07:34:20;;;;;;;17.60;11.77;;;;;;;12.84;53.75;99417.22;5091951;28;42494;-74
2021/03/26 07:37:00;;;;;;;16.47;12.70;;;;;;;13.17;52.80;99422.22;5109816;28;42671;-73
2021/03/26 07:39:41;;;;;;;15.77;11.53;;;;;;;13.39;51.90;99419.03;5109540;28;42079;-74
2021/03/26 07:42:21;;;;;;;14.37;11.57;;;;;;;13.88;50.67;99424.63;5109939;28;41076;-74
2021/03/26 07:45:17;;;;;;;15.40;12.20;;;;;;;14.81;48.61;99450.25;5091699;28;42359;-73
2021/03/26 07:47:57;;;;;;;15.10;11.17;;;;;;;16.00;45.68;99453.09;5089801;28;42605;-74
2021/03/26 07:50:50;;;;;;;14.93;11.60;;;;;;;16.22;45.10;99463.00;5071790;28;41882;-73
2021/03/26 07:53:31;;;;;;;16.87;12.03;;;;;;;16.32;45.42;99447.13;5093730;28;40294;-74
2021/03/26 07:56:07;;;;;;;17.50;12.37;;;;;;;16.96;43.57;99455.50;5077605;28;40857;-73
2021/03/26 07:59:05;;;;;;;16.37;13.10;;;;;;;17.23;42.61;99464.00;5094177;28;41912;-73
2021/03/26 08:01:58;;;;;;;12.93;11.60;;;;;;;19.14;40.65;99465.75;5109540;28;42051;-75
2021/03/26 08:04:27;;;;;;;14.37;11.97;;;;;;;20.83;37.08;99478.94;5092349;28;39601;-74
2021/03/26 08:07:33;;;;;;;13.90;10.87;;;;;;;22.85;33.26;99505.56;5076063;28;40673;-73
2021/03/26 08:10:14;;;;;;;15.47;11.70;;;;;;;23.83;32.39;99509.63;5093295;28;42633;-75
2021/03/26 08:12:55;;;;;;;14.57;10.57;;;;;;;23.60;31.46;99508.53;5090902;28;42398;-75
2021/03/26 08:15:46;;;;;;;13.03;10.57;;;;;;;22.80;32.59;99498.91;5075579;28;40125;-73
2021/03/26 08:18:32;;;;;;;13.53;11.40;;;;;;;22.75;32.94;99490.44;5093429;28;41647;-72
2021/03/26 08:21:11;;;;;;;14.47;11.30;;;;;;;23.62;31.82;99495.66;5093234;28;42513;-73
2021/03/26 08:23:49;;;;;;;19.60;15.40;;;;;;;24.21;30.70;99507.34;5111075;28;42677;-74
2021/03/26 08:26:42;;;;;;;14.80;13.20;;;;;;;24.31;30.42;99505.34;5091433;28;39903;-73
2021/03/26 08:29:24;;;;;;;12.27;10.97;;;;;;;25.50;29.13;99505.53;5090353;28;42325;-73
2021/03/26 08:32:05;;;;;;;12.83;11.53;;;;;;;25.76;28.69;99511.56;5084146;28;42767;-73
2021/03/26 08:35:15;;;;;;;15.13;12.07;;;;;;;25.69;28.63;99510.59;5111334;28;42025;-74
2021/03/26 08:37:54;;;;;;;13.73;11.10;;;;;;;25.52;28.96;99508.94;5074558;28;40233;-73
2021/03/26 08:40:23;;;;;;;11.13;9.90;;;;;;;25.86;28.32;99482.34;5111250;28;41696;-73
2021/03/26 08:42:54;;;;;;;15.33;10.73;;;;;;;27.65;26.89;99524.31;5111760;28;42738;-77
2021/03/26 08:45:28;;;;;;;12.93;11.63;;;;;;;29.01;23.88;99546.16;5077012;28;41048;-76
2021/03/26 08:48:08;;;;;;;13.87;12.43;;;;;;;30.46;22.77;99541.50;5110037;27;40808;-77
2021/03/26 08:50:45;;;;;;;11.50;10.57;;;;;;;31.75;21.96;99548.28;5113358;27;42434;-76
2021/03/26 08:53:22;;;;;;;11.60;10.50;;;;;;;32.90;20.87;99560.97;5110422;27;42985;-75
2021/03/26 08:56:04;;;;;;;12.90;10.23;;;;;;;33.11;20.11;99544.13;5110796;28;42238;-76
2021/03/26 08:58:50;;;;;;;11.67;10.37;;;;;;;34.32;18.79;99561.88;5093264;28;40775;-76
2021/03/26 09:01:47;;;;;;;10.63;9.52;;;;;;;35.59;17.62;99564.06;5092696;28;41943;-78
2021/03/26 09:04:37;;;;;;;13.73;10.65;;;;;;;35.67;17.01;99565.59;5092901;28;42564;-76
2021/03/26 09:07:16;;;;;;;12.73;11.43;;;;;;;34.39;18.07;99551.59;5109876;28;42360;-75
2021/03/26 09:09:58;;;;;;;11.40;10.27;;;;;;;34.46;17.96;99541.34;5092793;28;40365;-76
2021/03/26 09:12:49;;;;;;;13.50;11.85;;;;;;;34.82;17.04;99549.50;5090546;28;41448;-75
2021/03/26 09:15:27;;;;;;;11.48;10.45;;;;;;;35.02;17.14;99546.41;5073797;28;42472;-75
2021/03/26 09:18:02;;;;;;;12.15;9.65;;;;;;;36.17;16.62;99542.97;5109937;27;42294;-75
2021/03/26 09:20:37;;;;;;;10.90;9.75;;;;;;;37.00;15.78;99559.75;5108448;28;40531;-76
2021/03/26 09:23:48;;;;;;;12.30;11.13;;;;;;;37.05;15.67;99539.69;5091633;28;41470;-76
2021/03/26 09:26:38;;;;;;;13.57;12.23;;;;;;;36.88;16.02;99530.53;5071911;28;43489;-80
2021/03/26 09:29:10;;;;;;;12.38;10.45;;;;;;;36.46;16.17;99528.13;5072697;28;41340;-75
2021/03/26 09:31:44;;;;;;;13.35;12.05;;;;;;;35.92;16.45;99524.00;5072168;28;40972;-74
2021/03/26 09:34:27;;;;;;;12.40;11.10;;;;;;;35.57;17.01;99518.53;5101574;28;42100;-75
2021/03/26 09:37:08;;;;;;;13.98;10.95;;;;;;;35.45;17.32;99506.69;5091942;28;42678;-74
2021/03/26 09:39:37;;;;;;;12.65;11.43;;;;;;;36.19;16.60;99519.59;5092781;28;41497;-75
2021/03/26 09:42:25;;;;;;;12.10;11.10;;;;;;;36.20;16.49;99503.88;5109844;28;40472;-75
2021/03/26 09:45:01;;;;;;;13.23;10.87;;;;;;;35.04;16.86;99500.22;5092420;28;40703;-75
2021/03/26 09:47:36;;;;;;;12.30;11.10;;;;;;;34.69;16.91;99499.31;5076437;28;43004;-77
2021/03/26 09:50:21;;;;;;;11.63;10.43;;;;;;;34.37;16.98;99502.31;5091666;28;42037;-78
2021/03/26 09:52:50;;;;;;;9.63;8.73;;;;;;;34.02;17.47;99495.81;5092578;28;40028;-76
2021/03/26 09:55:21;;;;;;;10.80;9.40;;;;;;;33.34;17.81;99487.75;5091181;28;41380;-75
2021/03/26 09:57:58;;;;;;;10.37;9.13;;;;;;;32.96;18.35;99483.25;5093142;28;42052;-76
2021/03/26 10:00:40;;;;;;;10.60;9.10;;;;;;;33.14;18.04;99485.16;5109711;28;42732;-73
2021/03/26 10:03:19;;;;;;;10.03;8.90;;;;;;;33.09;18.24;99485.84;5092735;28;39359;-73
2021/03/26 10:05:54;;;;;;;10.77;9.67;;;;;;;33.03;18.15;99450.22;5109559;28;41517;-74
2021/03/26 10:08:49;;;;;;;8.80;7.27;;;;;;;32.68;18.57;99478.16;5108444;28;42624;-74
2021/03/26 10:11:20;;;;;;;9.80;7.13;;;;;;;32.29;18.65;99476.56;5091821;28;42715;-75
2021/03/26 10:13:55;;;;;;;7.73;6.93;;;;;;;31.54;18.86;99461.69;5109756;28;39618;-76
2021/03/26 10:16:35;;;;;;;7.73;7.03;;;;;;;31.75;18.94;99466.09;5109754;28;41391;-76
2021/03/26 10:19:06;;;;;;;7.03;6.33;;;;;;;30.80;19.69;99470.25;5091600;28;43341;-76
2021/03/26 10:21:37;;;;;;;7.83;6.50;;;;;;;29.78;20.75;99413.13;5109341;28;42296;-76
2021/03/26 10:24:13;;;;;;;7.83;7.03;;;;;;;30.51;20.17;99446.91;5108885;28;41393;-75
2021/03/26 10:26:48;;;;;;;9.90;7.93;;;;;;;30.46;20.52;99443.09;5084068;28;40788;-76
2021/03/26 10:29:22;;;;;;;10.17;8.33;;;;;;;31.66;19.95;99442.72;5087745;28;42654;-74
2021/03/26 10:31:53;;;;;;;13.23;8.80;;;;;;;33.06;18.21;99447.88;5106680;28;42765;-74
2021/03/26 10:34:33;;;;;;;9.83;8.83;;;;;;;34.02;18.28;99435.34;5123686;27;40254;-74
2021/03/26 10:37:17;;;;;;;9.13;8.03;;;;;;;34.98;17.37;99439.78;5088948;28;42130;-75
2021/03/26 10:39:50;;;;;;;9.90;8.00;;;;;;;35.49;16.91;99419.69;5099350;28;43179;-77
2021/03/26 10:42:30;;;;;;;9.50;7.70;;;;;;;35.58;16.33;99448.56;5116975;28;42107;-77
2021/03/26 10:45:21;;;;;;;8.73;7.90;;;;;;;35.41;16.34;99434.69;5112781;28;39901;-74
2021/03/26 10:47:53;;;;;;;12.70;11.40;;;;;;;35.44;16.44;99436.13;5089910;28;41420;-74
2021/03/26 10:50:36;;;;;;;10.95;9.95;;;;;;;35.87;15.52;99442.00;5074183;28;42682;-75
2021/03/26 10:53:10;;;;;;;10.43;9.43;;;;;;;36.03;15.51;99431.28;5076088;28;42973;-74
2021/03/26 10:55:52;;;;;;;8.93;7.55;;;;;;;36.75;15.73;99428.72;5095933;28;38972;-82
2021/03/26 10:58:33;;;;;;;7.95;6.93;;;;;;;37.77;14.77;99419.94;5095383;28;42391;-77
2021/03/26 11:01:04;;;;;;;9.02;6.15;;;;;;;38.80;14.23;99425.16;5078635;28;42267;-76
2021/03/26 11:03:38;;;;;;;5.72;5.05;;;;;;;39.84;13.78;99395.75;5094820;28;42085;-78
2021/03/26 11:06:23;;;;;;;7.20;6.53;;;;;;;40.69;12.02;99427.50;5112779;28;39695;-74
2021/03/26 11:08:58;;;;;;;6.72;6.03;;;;;;;40.89;12.61;99412.81;5112625;28;42417;-76
2021/03/26 11:11:34;;;;;;;6.72;5.80;;;;;;;41.18;12.45;99399.97;5113033;28;43216;-76
2021/03/26 11:14:31;;;;;;;7.15;6.50;;;;;;;41.35;11.98;99404.34;5094219;28;42902;-76
2021/03/26 11:17:25;;;;;;;6.60;6.00;;;;;;;40.83;12.06;99411.97;5078315;28;39668;-74
2021/03/26 11:20:22;;;;;;;7.03;5.95;;;;;;;40.69;12.55;99390.56;5108473;28;42189;-77
2021/03/26 11:22:57;;;;;;;6.97;6.38;;;;;;;41.54;12.09;99386.81;5085966;28;42443;-75
2021/03/26 11:25:31;;;;;;;6.82;6.22;;;;;;;40.00;12.47;99394.69;5073389;28;42986;-75
2021/03/26 11:28:00;;;;;;;10.23;8.75;;;;;;;38.66;13.13;99390.69;5058264;28;39037;-74
2021/03/26 11:30:39;;;;;;;6.97;6.43;;;;;;;38.76;13.28;99367.78;5085397;28;40687;-75
2021/03/26 11:33:20;;;;;;;9.50;7.35;;;;;;;38.12;13.68;99344.81;5099567;28;43209;-75
2021/03/26 11:35:48;;;;;;;8.07;7.30;;;;;;;37.68;13.77;99361.53;5112347;28;42410;-74
2021/03/26 11:38:22;;;;;;;8.25;6.85;;;;;;;38.23;13.79;99355.72;5093611;28;40515;-75
2021/03/26 11:40:59;;;;;;;9.57;8.55;;;;;;;37.55;14.06;99354.44;5093172;28;41841;-75
2021/03/26 11:43:29;;;;;;;9.13;8.17;;;;;;;35.37;15.17;99355.53;5112453;28;42630;-74
2021/03/26 11:46:04;;;;;;;8.30;7.50;;;;;;;34.45;16.33;99325.94;5111639;28;42339;-75
2021/03/26 11:48:44;;;;;;;9.57;8.33;;;;;;;35.22;15.87;99326.59;5112049;28;40573;-74
2021/03/26 11:51:20;;;;;;;9.30;8.37;;;;;;;34.78;15.86;99330.84;5077599;28;41607;-75
2021/03/26 11:53:59;;;;;;;10.37;8.27;;;;;;;34.13;16.41;99299.81;5109199;28;42680;-74
2021/03/26 11:56:47;;;;;;;10.07;7.60;;;;;;;34.99;15.98;99318.38;5111471;28;43335;-76
2021/03/26 11:59:52;;;;;;;8.97;7.73;;;;;;;33.32;16.61;99308.66;5110973;28;41046;-76
2021/03/26 12:02:29;;;;;;;7.87;7.00;;;;;;;33.66;17.30;99287.88;5076558;28;41478;-76
2021/03/26 12:05:05;;;;;;;10.80;8.40;;;;;;;33.31;17.27;99279.50;5092591;28;43442;-76
2021/03/26 12:07:40;;;;;;;11.03;9.47;;;;;;;33.13;17.30;99292.19;5111313;28;43002;-77
2021/03/26 12:10:22;;;;;;;9.30;7.33;;;;;;;33.10;17.47;99287.16;5093970;28;40426;-76
2021/03/26 12:12:56;;;;;;;11.27;9.43;;;;;;;31.99;18.39;99269.94;5092743;28;42392;-76
2021/03/26 12:15:28;;;;;;;8.63;7.73;;;;;;;31.14;18.61;99250.28;5111291;28;43344;-76
2021/03/26 12:18:04;;;;;;;10.17;9.17;;;;;;;31.54;18.19;99253.59;5110989;28;42096;-76
2021/03/26 12:20:34;;;;;;;12.77;9.37;;;;;;;30.82;18.75;99245.75;5076088;28;40606;-76
2021/03/26 12:23:09;;;;;;;7.90;7.03;;;;;;;29.95;19.76;99238.75;5068265;28;40569;-77
2021/03/26 12:25:43;;;;;;;11.03;8.77;;;;;;;29.54;20.54;99231.63;5072994;28;42928;-77